createdAt,value
2023-06-10T00:00:13.829Z,674.08
2023-06-10T00:01:13.849Z,674.52
2023-06-10T00:02:13.821Z,674.28
2023-06-10T00:03:13.933Z,674.41
2023-06-10T00:04:13.936Z,675.09
2023-06-10T00:05:13.811Z,675.39
2023-06-10T00:06:13.757Z,674.70
2023-06-10T00:07:13.770Z,675.10
2023-06-10T00:08:13.732Z,674.93
2023-06-10T00:09:13.751Z,674.98
2023-06-10T00:10:13.732Z,675.85
2023-06-10T00:11:13.718Z,675.58
2023-06-10T00:12:13.696Z,674.90
2023-06-10T00:13:13.711Z,675.66
2023-06-10T00:14:13.701Z,675.29
2023-06-10T00:15:13.829Z,675.54
2023-06-10T00:16:13.661Z,675.65
2023-06-10T00:17:13.660Z,675.97
2023-06-10T00:18:13.639Z,675.45
2023-06-10T00:19:13.603Z,676.53
2023-06-10T00:20:14.023Z,678.05
2023-06-10T00:21:13.602Z,676.89
2023-06-10T00:22:13.637Z,676.78
2023-06-10T00:23:13.622Z,676.73
2023-06-10T00:24:13.798Z,676.95
2023-06-10T00:25:13.653Z,678.39
2023-06-10T00:26:13.590Z,677.54
2023-06-10T00:27:13.581Z,678.92
2023-06-10T00:28:13.541Z,678.43
2023-06-10T00:29:13.573Z,677.66
2023-06-10T00:30:13.521Z,677.50
2023-06-10T00:31:13.578Z,678.00
2023-06-10T00:32:13.576Z,678.40
2023-06-10T00:33:13.519Z,678.90
2023-06-10T00:34:13.449Z,678.78
2023-06-10T00:35:13.659Z,678.29
2023-06-10T00:36:13.424Z,678.37
2023-06-10T00:37:13.409Z,679.10
2023-06-10T00:38:13.409Z,678.22
2023-06-10T00:39:13.382Z,678.19
2023-06-10T00:40:13.392Z,679.72
2023-06-10T00:41:13.393Z,679.47
2023-06-10T00:42:13.383Z,679.35
2023-06-10T00:43:13.366Z,680.45
2023-06-10T00:44:13.333Z,679.24
2023-06-10T00:45:13.385Z,680.00
2023-06-10T00:46:13.352Z,680.59
2023-06-10T00:47:13.324Z,681.32
2023-06-10T00:48:13.378Z,680.71
2023-06-10T00:49:13.305Z,681.88
2023-06-10T00:50:21.096Z,680.23
2023-06-10T00:51:13.263Z,681.12
2023-06-10T00:52:13.240Z,681.15
2023-06-10T00:53:13.227Z,680.51
2023-06-10T00:54:13.232Z,681.24
2023-06-10T00:55:13.208Z,681.05
2023-06-10T00:56:13.240Z,681.99
2023-06-10T00:57:13.185Z,680.08
2023-06-10T00:58:13.175Z,680.05
2023-06-10T00:59:13.179Z,682.31
2023-06-10T01:00:13.162Z,682.33
2023-06-10T01:01:13.161Z,684.00
2023-06-10T01:02:13.175Z,682.20
2023-06-10T01:03:13.233Z,681.94
2023-06-10T01:04:13.137Z,683.19
2023-06-10T01:24:04.723Z,682.22
2023-06-10T01:25:04.650Z,684.76
2023-06-10T01:26:04.644Z,687.08
2023-06-10T01:27:04.641Z,685.75
2023-06-10T01:28:04.611Z,685.86
2023-06-10T01:29:04.590Z,685.00
2023-06-10T01:30:04.631Z,684.50
2023-06-10T01:31:04.616Z,684.23
2023-06-10T01:32:04.554Z,685.20
2023-06-10T01:33:04.560Z,684.02
2023-06-10T01:34:04.549Z,684.33
2023-06-10T01:35:04.525Z,684.40
2023-06-10T01:36:04.546Z,684.57
2023-06-10T01:37:04.569Z,685.28
2023-06-10T01:38:04.535Z,684.88
2023-06-10T01:39:04.477Z,685.94
2023-06-10T01:40:04.500Z,685.84
2023-06-10T01:41:04.461Z,684.37
2023-06-10T01:42:04.459Z,684.37
2023-06-10T01:43:04.489Z,684.32
2023-06-10T01:44:04.424Z,685.29
2023-06-10T01:45:04.423Z,686.46
2023-06-10T01:46:04.468Z,686.36
2023-06-10T01:47:04.430Z,685.79
2023-06-10T01:48:04.491Z,687.22
2023-06-10T01:49:04.366Z,687.13
2023-06-10T01:50:04.382Z,686.70
2023-06-10T01:51:04.351Z,686.15
2023-06-10T01:52:04.363Z,685.04
2023-06-10T01:53:04.312Z,685.99
2023-06-10T01:54:04.302Z,687.05
2023-06-10T01:55:04.332Z,686.51
2023-06-10T01:56:04.303Z,686.29
2023-06-10T01:57:04.273Z,685.44
2023-06-10T01:58:04.280Z,686.32
2023-06-10T01:59:04.276Z,687.70
2023-06-10T02:00:04.251Z,686.44
2023-06-10T02:01:04.276Z,687.85
2023-06-10T02:02:04.261Z,686.08
2023-06-10T02:03:04.259Z,686.35
2023-06-10T02:04:04.287Z,686.77
2023-06-10T02:05:04.192Z,687.42
2023-06-10T02:06:04.187Z,687.02
2023-06-10T02:07:04.187Z,688.45
2023-06-10T02:08:04.149Z,687.67
2023-06-10T02:09:04.140Z,687.49
2023-06-10T02:10:04.150Z,685.95
2023-06-10T02:11:04.113Z,686.95
2023-06-10T02:12:04.145Z,687.14
2023-06-10T02:13:04.087Z,687.10
2023-06-10T02:14:04.128Z,688.08
2023-06-10T02:15:04.079Z,687.51
2023-06-10T02:16:04.117Z,687.21
2023-06-10T02:17:04.073Z,688.66
2023-06-10T02:18:04.173Z,687.10
2023-06-10T02:19:04.058Z,686.51
2023-06-10T02:20:04.031Z,687.02
2023-06-10T02:21:04.011Z,686.32
2023-06-10T02:22:03.998Z,685.86
2023-06-10T02:23:04.010Z,687.41
2023-06-10T02:24:04.089Z,687.79
2023-06-10T02:25:03.961Z,687.23
2023-06-10T02:26:03.959Z,688.17
2023-06-10T02:27:03.927Z,688.30
2023-06-10T02:28:03.956Z,687.64
2023-06-10T02:29:03.960Z,688.30
2023-06-10T02:30:03.927Z,688.86
2023-06-10T02:31:03.886Z,687.96
2023-06-10T02:32:03.941Z,687.94
2023-06-10T02:33:03.926Z,690.34
2023-06-10T02:34:03.869Z,688.91
2023-06-10T02:35:03.868Z,688.23
2023-06-10T02:36:03.850Z,689.05
2023-06-10T02:37:03.824Z,688.38
2023-06-10T02:38:03.822Z,689.00
2023-06-10T02:39:03.870Z,687.84
2023-06-10T02:40:03.810Z,688.62
2023-06-10T02:41:03.773Z,688.87
2023-06-10T02:42:03.760Z,689.29
2023-06-10T02:43:03.760Z,689.47
2023-06-10T02:44:03.792Z,688.76
2023-06-10T02:45:03.727Z,689.31
2023-06-10T02:46:03.781Z,688.53
2023-06-10T02:47:03.722Z,688.30
2023-06-10T02:48:03.732Z,688.55
2023-06-10T02:49:03.720Z,687.29
2023-06-10T02:50:03.704Z,687.75
2023-06-10T02:51:03.684Z,687.26
2023-06-10T02:52:03.654Z,686.89
2023-06-10T02:53:03.672Z,688.49
2023-06-10T02:54:03.650Z,687.33
2023-06-10T02:55:03.654Z,687.06
2023-06-10T02:56:03.615Z,686.78
2023-06-10T02:57:03.615Z,687.30
2023-06-10T02:58:03.630Z,685.59
2023-06-10T02:59:03.580Z,686.71
2023-06-10T03:00:03.616Z,685.45
2023-06-10T03:01:03.633Z,685.88
2023-06-10T03:02:03.572Z,685.50
2023-06-10T03:03:03.578Z,685.68
2023-06-10T03:04:03.589Z,685.71
2023-06-10T03:05:03.566Z,684.46
2023-06-10T03:06:03.506Z,685.30
2023-06-10T03:07:03.499Z,685.88
2023-06-10T03:08:03.501Z,684.31
2023-06-10T03:09:03.495Z,684.59
2023-06-10T03:10:03.462Z,686.01
2023-06-10T03:11:03.450Z,684.12
2023-06-10T03:12:03.456Z,685.97
2023-06-10T03:13:03.455Z,685.00
2023-06-10T03:14:03.429Z,684.69
2023-06-10T03:15:03.418Z,684.40
2023-06-10T03:16:03.418Z,684.09
2023-06-10T03:17:03.416Z,686.11
2023-06-10T03:18:03.496Z,685.14
2023-06-10T03:19:03.438Z,685.17
2023-06-10T03:20:03.340Z,685.42
2023-06-10T03:21:03.349Z,684.96
2023-06-10T03:22:03.316Z,685.77
2023-06-10T03:23:03.312Z,685.34
2023-06-10T03:25:19.356Z,685.17
2023-06-10T03:26:19.313Z,686.67
2023-06-10T03:27:19.369Z,686.16
2023-06-10T03:28:19.300Z,686.56
2023-06-10T03:29:19.298Z,686.01
2023-06-10T03:30:19.275Z,685.56
2023-06-10T03:31:19.293Z,685.65
2023-06-10T03:32:19.301Z,686.34
2023-06-10T03:33:19.264Z,684.49
2023-06-10T03:34:19.224Z,684.48
2023-06-10T03:35:19.240Z,685.28
2023-06-10T03:36:19.236Z,686.30
2023-06-10T03:37:19.189Z,685.97
2023-06-10T03:38:19.192Z,685.03
2023-06-10T03:39:19.186Z,685.83
2023-06-10T03:40:19.192Z,686.34
2023-06-10T03:41:19.151Z,686.59
2023-06-10T03:42:19.156Z,686.17
2023-06-10T03:43:19.137Z,686.38
2023-06-10T03:44:19.108Z,684.89
2023-06-10T03:45:19.119Z,685.66
2023-06-10T03:46:19.205Z,686.14
2023-06-10T03:47:19.130Z,685.11
2023-06-10T03:48:19.078Z,684.61
2023-06-10T03:49:19.085Z,685.83
2023-06-10T03:50:19.039Z,685.36
2023-06-10T03:51:19.034Z,686.63
2023-06-10T03:52:19.040Z,686.45
2023-06-10T03:53:19.045Z,685.62
2023-06-10T03:54:19.015Z,687.66
2023-06-10T03:55:18.993Z,686.60
2023-06-10T03:56:18.992Z,685.85
2023-06-10T03:57:18.992Z,685.11
2023-06-10T03:58:18.956Z,685.95
2023-06-10T03:59:18.950Z,685.52
2023-06-10T04:00:18.950Z,686.07
2023-06-10T04:01:18.918Z,685.73
2023-06-10T04:02:18.995Z,685.32
2023-06-10T04:03:18.961Z,685.75
2023-06-10T04:04:18.883Z,686.88
2023-06-10T04:05:18.964Z,685.59
2023-06-10T04:06:18.888Z,685.92
2023-06-10T04:07:18.914Z,686.39
2023-06-10T04:08:18.881Z,686.81
2023-06-10T04:09:18.839Z,687.05
2023-06-10T04:10:18.833Z,686.05
2023-06-10T04:11:18.810Z,686.33
2023-06-10T04:12:18.805Z,685.36
2023-06-10T04:13:18.804Z,685.92
2023-06-10T04:14:18.805Z,685.82
2023-06-10T04:15:18.779Z,686.97
2023-06-10T04:16:18.784Z,686.53
2023-06-10T04:17:18.797Z,687.13
2023-06-10T04:18:18.764Z,687.64
2023-06-10T04:19:19.047Z,687.04
2023-06-10T04:20:18.725Z,685.67
2023-06-10T04:21:20.658Z,685.25
2023-06-10T04:22:18.681Z,685.23
2023-06-10T04:23:18.701Z,685.35
2023-06-10T04:24:18.690Z,686.02
2023-06-10T04:25:18.652Z,684.79
2023-06-10T04:26:18.645Z,685.57
2023-06-10T04:27:18.641Z,684.70
2023-06-10T04:28:18.624Z,684.79
2023-06-10T04:29:18.637Z,686.67
2023-06-10T04:30:18.600Z,685.78
2023-06-10T04:31:18.633Z,685.90
2023-06-10T04:32:18.601Z,685.64
2023-06-10T04:33:18.569Z,686.57
2023-06-10T04:34:18.571Z,685.22
2023-06-10T04:35:18.570Z,683.82
2023-06-10T04:36:18.527Z,683.15
2023-06-10T04:37:18.520Z,683.29
2023-06-10T04:38:18.533Z,683.59
2023-06-10T04:39:18.492Z,683.85
2023-06-10T04:40:18.492Z,682.97
2023-06-10T04:41:18.489Z,683.06
2023-06-10T04:42:18.461Z,684.84
2023-06-10T04:43:18.478Z,684.57
2023-06-10T04:44:18.453Z,683.05
2023-06-10T04:45:18.449Z,684.60
2023-06-10T04:46:18.479Z,685.15
2023-06-10T04:47:18.409Z,683.33
2023-06-10T04:48:18.396Z,682.47
2023-06-10T04:49:18.383Z,682.29
2023-06-10T04:50:18.380Z,681.91
2023-06-10T04:51:18.392Z,683.35
2023-06-10T04:52:19.437Z,682.32
2023-06-10T04:53:18.373Z,683.61
2023-06-10T04:54:18.324Z,682.03
2023-06-10T04:55:18.330Z,681.02
2023-06-10T04:56:18.301Z,681.83
2023-06-10T04:57:18.297Z,682.05
2023-06-10T04:58:18.297Z,681.84
2023-06-10T04:59:18.295Z,681.98
2023-06-10T05:00:18.259Z,682.17
2023-06-10T05:01:18.249Z,683.18
2023-06-10T05:02:18.413Z,680.74
2023-06-10T05:03:18.297Z,681.82
2023-06-10T05:04:18.212Z,678.85
2023-06-10T05:05:18.211Z,679.38
2023-06-10T05:06:18.214Z,680.94
2023-06-10T05:07:18.217Z,682.44
2023-06-10T05:08:18.170Z,682.51
2023-06-10T05:09:18.184Z,682.76
2023-06-10T05:10:18.149Z,683.52
2023-06-10T05:11:18.158Z,680.18
2023-06-10T05:12:18.142Z,679.07
2023-06-10T05:13:18.113Z,679.53
2023-06-10T05:14:18.104Z,678.94
2023-06-10T05:15:18.110Z,680.01
2023-06-10T05:16:18.126Z,681.72
2023-06-10T05:17:18.074Z,682.25
2023-06-10T05:18:18.082Z,683.32
2023-06-10T05:19:18.049Z,683.50
2023-06-10T05:20:18.532Z,684.40
2023-06-10T05:21:18.026Z,683.46
2023-06-10T05:22:18.017Z,683.99
2023-06-10T05:23:18.025Z,682.22
2023-06-10T05:24:18.085Z,682.05
2023-06-10T05:26:26.953Z,681.05
2023-06-10T05:27:26.936Z,678.69
2023-06-10T05:28:26.925Z,679.63
2023-06-10T05:29:26.906Z,680.79
2023-06-10T05:30:26.908Z,682.50
2023-06-10T05:31:26.891Z,682.91
2023-06-10T05:32:26.896Z,683.77
2023-06-10T05:33:26.864Z,682.09
2023-06-10T05:34:26.875Z,680.71
2023-06-10T05:35:26.865Z,682.25
2023-06-10T05:36:26.825Z,683.01
2023-06-10T05:37:26.828Z,681.25
2023-06-10T05:38:26.848Z,682.57
2023-06-10T05:39:26.834Z,688.50
2023-06-10T05:40:26.801Z,689.21
2023-06-10T05:41:26.775Z,685.69
2023-06-10T05:42:26.773Z,682.09
2023-06-10T05:43:26.797Z,682.48
2023-06-10T05:44:26.742Z,681.41
2023-06-10T05:45:26.863Z,681.99
2023-06-10T05:46:26.817Z,680.78
2023-06-10T05:47:26.769Z,682.70
2023-06-10T05:48:26.706Z,682.39
2023-06-10T05:49:26.727Z,683.06
2023-06-10T05:50:26.675Z,684.54
2023-06-10T05:51:26.683Z,682.87
2023-06-10T05:52:27.424Z,680.34
2023-06-10T05:53:26.677Z,683.80
2023-06-10T05:54:29.794Z,686.13
2023-06-10T05:55:26.658Z,683.81
2023-06-10T05:56:26.608Z,682.64
2023-06-10T05:57:26.602Z,684.50
2023-06-10T05:58:26.588Z,682.42
2023-06-10T05:59:26.597Z,678.78
2023-06-10T06:00:26.568Z,676.28
2023-06-10T06:01:26.621Z,677.52
2023-06-10T06:02:26.636Z,675.45
2023-06-10T06:03:26.744Z,673.77
2023-06-10T06:04:26.654Z,672.83
2023-06-10T06:05:26.529Z,673.11
2023-06-10T06:06:26.495Z,675.94
2023-06-10T06:07:26.505Z,677.16
2023-06-10T06:08:26.495Z,679.72
2023-06-10T06:09:26.467Z,681.55
2023-06-10T06:10:26.494Z,680.23
2023-06-10T06:11:26.472Z,679.81
2023-06-10T06:12:26.434Z,680.54
2023-06-10T06:13:26.425Z,677.79
2023-06-10T06:14:26.407Z,678.51
2023-06-10T06:15:26.400Z,676.53
2023-06-10T06:16:26.473Z,677.08
2023-06-10T06:17:26.416Z,675.37
2023-06-10T06:18:26.369Z,674.07
2023-06-10T06:19:26.416Z,677.24
2023-06-10T06:20:26.343Z,676.39
2023-06-10T06:21:26.338Z,681.28
2023-06-10T06:22:26.324Z,684.97
2023-06-10T06:23:26.345Z,687.54
2023-06-10T06:24:26.368Z,689.72
2023-06-10T06:25:26.303Z,688.98
2023-06-10T06:26:26.300Z,683.61
2023-06-10T06:27:26.270Z,683.23
2023-06-10T06:28:26.254Z,684.92
2023-06-10T06:29:26.288Z,686.33
2023-06-10T06:30:26.318Z,682.24
2023-06-10T06:31:26.314Z,678.94
2023-06-10T06:32:26.279Z,677.28
2023-06-10T06:33:26.207Z,681.44
2023-06-10T06:34:26.197Z,681.56
2023-06-10T06:35:26.186Z,681.04
2023-06-10T06:36:26.181Z,678.05
2023-06-10T06:37:26.198Z,675.93
2023-06-10T06:38:26.194Z,675.27
2023-06-10T06:39:26.141Z,675.10
2023-06-10T06:40:26.148Z,675.06
2023-06-10T06:41:26.130Z,673.58
2023-06-10T06:42:26.146Z,670.90
2023-06-10T06:43:26.108Z,669.23
2023-06-10T06:44:26.081Z,668.82
2023-06-10T06:45:26.125Z,669.43
2023-06-10T06:46:33.598Z,668.66
2023-06-10T06:47:26.199Z,670.39
2023-06-10T06:48:26.173Z,672.19
2023-06-10T06:49:26.042Z,675.01
2023-06-10T06:50:26.035Z,674.85
2023-06-10T06:51:26.054Z,672.11
2023-06-10T06:52:25.997Z,670.26
2023-06-10T06:53:25.992Z,673.62
2023-06-10T06:54:25.975Z,674.50
2023-06-10T06:55:25.972Z,670.78
2023-06-10T06:56:26.066Z,671.48
2023-06-10T06:57:26.094Z,672.36
2023-06-10T06:58:25.953Z,671.74
2023-06-10T06:59:25.924Z,670.36
2023-06-10T07:00:25.947Z,670.57
2023-06-10T07:01:25.953Z,672.62
2023-06-10T07:02:25.908Z,674.74
2023-06-10T07:03:25.912Z,675.30
2023-06-10T07:04:25.874Z,676.00
2023-06-10T07:05:25.906Z,674.81
2023-06-10T07:06:25.846Z,672.75
2023-06-10T07:07:25.833Z,673.72
2023-06-10T07:08:25.865Z,673.26
2023-06-10T07:09:25.832Z,674.72
2023-06-10T07:10:25.800Z,671.88
2023-06-10T07:11:25.786Z,674.27
2023-06-10T07:12:25.800Z,672.38
2023-06-10T07:13:25.798Z,670.82
2023-06-10T07:14:25.779Z,672.55
2023-06-10T07:15:25.766Z,670.04
2023-06-10T07:16:25.754Z,669.49
2023-06-10T07:17:25.764Z,670.44
2023-06-10T07:18:25.716Z,667.61
2023-06-10T07:19:25.712Z,671.62
2023-06-10T07:20:25.712Z,672.61
2023-06-10T07:21:25.679Z,671.31
2023-06-10T07:22:25.680Z,669.78
2023-06-10T07:23:25.683Z,669.10
2023-06-10T07:24:25.647Z,669.46
2023-06-10T07:25:25.652Z,668.15
2023-06-10T07:26:25.644Z,669.79
2023-06-10T07:27:25.617Z,668.65
2023-06-10T07:28:25.615Z,669.40
2023-06-10T07:29:25.632Z,667.49
2023-06-10T07:30:25.624Z,667.63
2023-06-10T07:31:25.653Z,666.15
2023-06-10T07:32:25.583Z,666.71
2023-06-10T07:33:25.590Z,665.07
2023-06-10T07:34:25.554Z,665.60
2023-06-10T07:35:25.542Z,669.14
2023-06-10T07:36:25.513Z,672.14
2023-06-10T07:37:25.502Z,672.10
2023-06-10T07:38:25.990Z,670.51
2023-06-10T07:39:25.567Z,670.60
2023-06-10T07:40:25.541Z,670.14
2023-06-10T07:41:25.466Z,670.42
2023-06-10T07:42:25.455Z,667.64
2023-06-10T07:43:25.442Z,666.29
2023-06-10T07:44:25.428Z,664.41
2023-06-10T07:45:25.441Z,663.46
2023-06-10T07:46:25.523Z,665.23
2023-06-10T07:47:25.480Z,666.68
2023-06-10T07:48:25.389Z,667.14
2023-06-10T07:49:25.388Z,665.69
2023-06-10T07:50:25.411Z,666.00
2023-06-10T07:51:25.382Z,666.11
2023-06-10T07:52:25.344Z,665.14
2023-06-10T07:53:25.339Z,664.27
2023-06-10T07:54:27.048Z,664.97
2023-06-10T07:55:25.302Z,663.98
2023-06-10T07:56:25.313Z,667.87
2023-06-10T07:57:25.290Z,668.57
2023-06-10T07:58:25.353Z,669.49
2023-06-10T07:59:25.282Z,666.96
2023-06-10T08:00:25.306Z,666.69
2023-06-10T08:01:25.238Z,664.06
2023-06-10T08:02:25.937Z,663.24
2023-06-10T08:03:25.317Z,662.40
2023-06-10T08:04:25.403Z,665.08
2023-06-10T08:05:25.357Z,664.68
2023-06-10T08:06:25.215Z,668.00
2023-06-10T08:07:25.208Z,670.62
2023-06-10T08:08:25.201Z,667.98
2023-06-10T08:09:25.183Z,668.88
2023-06-10T08:10:25.182Z,668.29
2023-06-10T08:11:25.136Z,669.95
2023-06-10T08:12:25.140Z,668.90
2023-06-10T08:13:25.126Z,667.31
2023-06-10T08:14:25.146Z,666.58
2023-06-10T08:15:25.094Z,667.90
2023-06-10T08:16:25.146Z,667.57
2023-06-10T08:17:25.134Z,667.84
2023-06-10T08:18:25.099Z,665.23
2023-06-10T08:19:25.076Z,664.86
2023-06-10T08:20:25.056Z,664.89
2023-06-10T08:21:25.017Z,667.36
2023-06-10T08:22:25.025Z,667.56
2023-06-10T08:23:25.016Z,667.44
2023-06-10T08:24:25.102Z,666.82
2023-06-10T08:25:24.980Z,669.04
2023-06-10T08:26:25.025Z,669.44
2023-06-10T08:27:25.016Z,667.98
2023-06-10T08:28:24.947Z,665.51
2023-06-10T08:29:24.937Z,665.29
2023-06-10T08:30:24.948Z,668.65
2023-06-10T08:31:24.936Z,667.85
2023-06-10T08:32:25.007Z,666.20
2023-06-10T08:33:24.925Z,666.28
2023-06-10T08:34:24.904Z,670.74
2023-06-10T08:35:24.867Z,668.30
2023-06-10T08:36:24.863Z,667.45
2023-06-10T08:37:24.863Z,665.73
2023-06-10T08:38:24.857Z,667.53
2023-06-10T08:39:24.846Z,667.53
2023-06-10T08:40:24.828Z,666.99
2023-06-10T08:41:24.856Z,667.44
2023-06-10T08:42:24.801Z,665.65
2023-06-10T08:43:24.792Z,666.99
2023-06-10T08:44:24.783Z,667.66
2023-06-10T08:45:24.789Z,666.96
2023-06-10T08:46:24.752Z,665.84
2023-06-10T08:47:32.683Z,662.21
2023-06-10T08:48:24.745Z,663.01
2023-06-10T08:49:24.752Z,664.43
2023-06-10T08:50:24.734Z,662.58
2023-06-10T08:51:24.696Z,662.35
2023-06-10T08:52:24.690Z,661.55
2023-06-10T08:53:24.684Z,662.59
2023-06-10T08:54:24.695Z,662.56
2023-06-10T08:55:24.667Z,662.61
2023-06-10T08:56:24.691Z,660.78
2023-06-10T08:57:24.629Z,663.94
2023-06-10T08:58:24.623Z,667.54
2023-06-10T08:59:24.623Z,669.03
2023-06-10T09:00:24.611Z,668.58
2023-06-10T09:01:24.636Z,667.77
2023-06-10T09:02:24.599Z,668.79
2023-06-10T09:03:24.598Z,669.24
2023-06-10T09:04:24.562Z,668.40
2023-06-10T09:05:24.591Z,665.18
2023-06-10T09:06:24.557Z,662.77
2023-06-10T09:07:24.524Z,659.82
2023-06-10T09:08:24.540Z,661.36
2023-06-10T09:09:24.511Z,661.62
2023-06-10T09:10:24.602Z,663.72
2023-06-10T09:11:24.497Z,663.68
2023-06-10T09:12:24.491Z,664.78
2023-06-10T09:13:24.453Z,663.03
2023-06-10T09:14:24.475Z,661.84
2023-06-10T09:15:24.450Z,663.81
2023-06-10T09:16:24.474Z,662.72
2023-06-10T09:17:24.456Z,662.05
2023-06-10T09:18:24.430Z,662.95
2023-06-10T09:19:24.395Z,664.49
2023-06-10T09:20:24.412Z,664.00
2023-06-10T09:21:24.379Z,662.11
2023-06-10T09:22:24.401Z,664.52
2023-06-10T09:23:24.370Z,663.33
2023-06-10T09:24:24.414Z,661.05
2023-06-10T09:25:24.349Z,661.05
2023-06-10T09:26:24.342Z,660.11
2023-06-10T09:27:24.312Z,658.79
2023-06-10T09:28:24.296Z,661.13
2023-06-10T09:29:24.313Z,660.19
2023-06-10T09:30:24.362Z,662.00
2023-06-10T09:31:24.314Z,661.45
2023-06-10T09:32:24.304Z,660.97
2023-06-10T09:33:24.245Z,661.84
2023-06-10T09:34:24.231Z,661.31
2023-06-10T09:35:24.260Z,661.11
2023-06-10T09:36:24.322Z,660.46
2023-06-10T09:37:24.193Z,661.37
2023-06-10T09:38:24.207Z,661.15
2023-06-10T09:39:24.170Z,660.68
2023-06-10T09:40:24.180Z,663.21
2023-06-10T09:41:24.151Z,664.64
2023-06-10T09:42:24.291Z,664.04
2023-06-10T09:43:24.133Z,662.22
2023-06-10T09:44:24.124Z,663.04
2023-06-10T09:45:24.131Z,663.16
2023-06-10T09:46:24.315Z,664.90
2023-06-10T09:47:24.167Z,665.62
2023-06-10T09:48:24.090Z,665.84
2023-06-10T09:49:24.080Z,668.46
2023-06-10T09:50:24.112Z,667.17
2023-06-10T09:51:24.041Z,665.10
2023-06-10T09:52:24.067Z,666.64
2023-06-10T09:53:24.036Z,664.32
2023-06-10T09:54:24.043Z,662.39
2023-06-10T09:55:24.001Z,663.34
2023-06-10T09:56:24.568Z,662.74
2023-06-10T09:57:24.059Z,662.71
2023-06-10T09:58:23.975Z,664.25
2023-06-10T09:59:23.958Z,664.18
2023-06-10T10:00:24.006Z,663.36
2023-06-10T10:01:23.942Z,663.75
2023-06-10T10:02:24.007Z,665.25
2023-06-10T10:03:23.945Z,664.83
2023-06-10T10:04:23.972Z,663.49
2023-06-10T10:05:24.319Z,662.17
2023-06-10T10:06:24.005Z,660.80
2023-06-10T10:07:23.882Z,657.93
2023-06-10T10:08:23.930Z,659.00
2023-06-10T10:09:23.873Z,658.56
2023-06-10T10:10:23.985Z,663.07
2023-06-10T10:11:23.925Z,660.53
2023-06-10T10:12:23.822Z,659.72
2023-06-10T10:13:23.832Z,658.90
2023-06-10T10:14:23.839Z,659.38
2023-06-10T10:15:23.790Z,657.99
2023-06-10T10:16:23.890Z,656.26
2023-06-10T10:17:23.917Z,656.19
2023-06-10T10:18:23.831Z,656.04
2023-06-10T10:19:23.746Z,656.57
2023-06-10T10:20:23.743Z,658.21
2023-06-10T10:21:23.739Z,657.72
2023-06-10T10:22:23.720Z,659.50
2023-06-10T10:23:23.737Z,658.66
2023-06-10T10:24:23.749Z,662.69
2023-06-10T10:25:23.709Z,663.88
2023-06-10T10:26:23.710Z,660.83
2023-06-10T10:27:23.668Z,663.78
2023-06-10T10:28:23.655Z,664.85
2023-06-10T10:29:23.729Z,663.06
2023-06-10T10:30:23.679Z,660.87
2023-06-10T10:31:23.696Z,658.84
2023-06-10T10:32:23.640Z,659.53
2023-06-10T10:33:23.692Z,661.38
2023-06-10T10:34:23.586Z,664.17
2023-06-10T10:35:23.595Z,665.77
2023-06-10T10:36:23.626Z,663.52
2023-06-10T10:37:23.634Z,661.18
2023-06-10T10:38:23.549Z,659.62
2023-06-10T10:39:23.531Z,658.47
2023-06-10T10:40:23.527Z,659.95
2023-06-10T10:41:23.507Z,658.68
2023-06-10T10:42:23.634Z,660.20
2023-06-10T10:43:23.517Z,662.47
2023-06-10T10:44:23.514Z,661.57
2023-06-10T10:45:23.469Z,658.29
2023-06-10T10:46:23.582Z,657.20
2023-06-10T10:47:23.494Z,657.21
2023-06-10T10:48:31.942Z,653.47
2023-06-10T10:49:23.562Z,657.35
2023-06-10T10:50:23.521Z,656.16
2023-06-10T10:51:23.427Z,659.88
2023-06-10T10:52:23.431Z,658.57
2023-06-10T10:53:23.385Z,660.80
2023-06-10T10:54:23.397Z,659.88
2023-06-10T10:55:23.395Z,659.80
2023-06-10T10:56:23.385Z,658.98
2023-06-10T10:57:23.553Z,657.87
2023-06-10T10:58:23.354Z,655.85
2023-06-10T10:59:23.369Z,654.03
2023-06-10T11:00:23.358Z,653.68
2023-06-10T11:01:23.335Z,655.88
2023-06-10T11:02:23.563Z,657.24
2023-06-10T11:03:23.717Z,656.37
2023-06-10T11:04:23.398Z,658.27
2023-06-10T11:05:23.333Z,659.82
2023-06-10T11:06:23.253Z,660.01
2023-06-10T11:07:23.513Z,659.69
2023-06-10T11:08:23.272Z,659.75
2023-06-10T11:09:23.267Z,658.06
2023-06-10T11:10:23.259Z,655.08
2023-06-10T11:11:23.243Z,654.04
2023-06-10T11:12:23.175Z,657.53
2023-06-10T11:13:23.219Z,657.36
2023-06-10T11:14:23.197Z,658.29
2023-06-10T11:15:23.157Z,658.83
2023-06-10T11:16:23.245Z,657.48
2023-06-10T11:17:23.194Z,655.19
2023-06-10T11:18:23.107Z,655.31
2023-06-10T11:19:23.106Z,654.29
2023-06-10T11:20:23.139Z,654.69
2023-06-10T11:21:24.173Z,657.76
2023-06-10T11:22:23.067Z,660.22
2023-06-10T11:23:23.127Z,657.40
2023-06-10T11:24:23.188Z,656.46
2023-06-10T11:25:23.065Z,656.85
2023-06-10T11:26:23.111Z,656.16
2023-06-10T11:27:24.861Z,656.56
2023-06-10T11:28:23.000Z,655.38
2023-06-10T11:29:23.060Z,657.57
2023-06-10T11:30:23.010Z,660.26
2023-06-10T11:31:23.183Z,658.01
2023-06-10T11:32:23.146Z,657.44
2023-06-10T11:33:23.039Z,657.12
2023-06-10T11:34:22.960Z,655.50
2023-06-10T11:35:22.954Z,654.98
2023-06-10T11:36:22.916Z,653.74
2023-06-10T11:37:22.912Z,653.37
2023-06-10T11:38:22.909Z,654.04
2023-06-10T11:39:22.881Z,654.99
2023-06-10T11:40:22.874Z,653.70
2023-06-10T11:41:22.871Z,654.15
2023-06-10T11:42:22.938Z,656.57
2023-06-10T11:43:22.841Z,656.26
2023-06-10T11:44:22.834Z,658.39
2023-06-10T11:45:22.839Z,656.68
2023-06-10T11:46:22.857Z,656.25
2023-06-10T11:47:22.830Z,656.88
2023-06-10T11:48:22.790Z,656.49
2023-06-10T11:49:22.774Z,656.67
2023-06-10T11:50:22.759Z,657.12
2023-06-10T11:51:22.822Z,658.61
2023-06-10T11:52:22.753Z,659.65
2023-06-10T11:53:22.752Z,655.07
2023-06-10T11:54:22.726Z,653.15
2023-06-10T11:55:22.734Z,652.50
2023-06-10T11:56:22.699Z,650.79
2023-06-10T11:57:22.688Z,655.71
2023-06-10T11:58:22.712Z,657.24
2023-06-10T11:59:22.676Z,655.76
2023-06-10T12:00:22.649Z,655.38
2023-06-10T12:01:28.050Z,654.97
2023-06-10T12:02:22.691Z,655.35
2023-06-10T12:03:22.700Z,657.63
2023-06-10T12:04:22.607Z,657.80
2023-06-10T12:05:22.616Z,659.34
2023-06-10T12:06:22.585Z,659.51
2023-06-10T12:07:22.577Z,662.31
2023-06-10T12:08:22.581Z,660.77
2023-06-10T12:09:24.358Z,659.65
2023-06-10T12:10:27.431Z,656.87
2023-06-10T12:11:22.534Z,654.88
2023-06-10T12:12:22.532Z,656.20
2023-06-10T12:13:23.577Z,657.41
2023-06-10T12:14:22.505Z,657.03
2023-06-10T12:15:22.495Z,656.71
2023-06-10T12:16:22.532Z,660.15
2023-06-10T12:17:22.535Z,660.42
2023-06-10T12:18:22.486Z,658.57
2023-06-10T12:19:22.454Z,655.80
2023-06-10T12:20:22.455Z,657.11
2023-06-10T12:21:22.420Z,657.04
2023-06-10T12:22:22.429Z,659.26
2023-06-10T12:23:22.415Z,659.50
2023-06-10T12:24:22.446Z,658.76
2023-06-10T12:25:22.394Z,658.10
2023-06-10T12:26:22.379Z,656.27
2023-06-10T12:27:22.379Z,655.92
2023-06-10T12:28:22.382Z,653.89
2023-06-10T12:29:22.338Z,655.01
2023-06-10T12:30:22.339Z,654.46
2023-06-10T12:31:22.369Z,654.85
2023-06-10T12:32:22.361Z,654.65
2023-06-10T12:33:22.343Z,655.22
2023-06-10T12:34:22.299Z,654.50
2023-06-10T12:35:22.267Z,653.52
2023-06-10T12:36:22.388Z,654.58
2023-06-10T12:37:22.255Z,652.39
2023-06-10T12:38:22.265Z,654.15
2023-06-10T12:39:22.227Z,653.41
2023-06-10T12:40:22.224Z,653.09
2023-06-10T12:41:22.234Z,655.76
2023-06-10T12:42:22.190Z,656.53
2023-06-10T12:43:22.217Z,655.93
2023-06-10T12:44:22.180Z,656.17
2023-06-10T12:45:22.174Z,659.60
2023-06-10T12:46:22.180Z,658.62
2023-06-10T12:47:22.173Z,657.22
2023-06-10T12:48:22.190Z,656.03
2023-06-10T12:50:49.049Z,652.56